sensor_id;sensor_type;location;lat;lon;timestamp;P1;durP1;ratioP1;P2;durP2;ratioP2
38581;SDS011;24349;53.720;10.014;2023-03-01T00:01:58;17.75;;;11.00;;
38581;SDS011;24349;53.720;10.014;2023-03-01T00:04:24;14.38;;;9.32;;
38581;SDS011;24349;53.720;10.014;2023-03-01T00:06:49;14.70;;;8.77;;
38581;SDS011;24349;53.720;10.014;2023-03-01T00:09:16;14.18;;;9.38;;
38581;SDS011;24349;53.720;10.014;2023-03-01T00:11:42;16.45;;;11.02;;
38581;SDS011;24349;53.720;10.014;2023-03-01T00:14:08;18.73;;;11.20;;
38581;SDS011;24349;53.720;10.014;2023-03-01T00:16:35;17.92;;;9.93;;
38581;SDS011;24349;53.720;10.014;2023-03-01T00:19:06;17.30;;;10.93;;
38581;SDS011;24349;53.720;10.014;2023-03-01T00:21:34;13.63;;;8.93;;
38581;SDS011;24349;53.720;10.014;2023-03-01T00:24:00;15.25;;;9.10;;
38581;SDS011;24349;53.720;10.014;2023-03-01T00:26:26;15.80;;;9.55;;
38581;SDS011;24349;53.720;10.014;2023-03-01T00:28:52;17.52;;;10.95;;
38581;SDS011;24349;53.720;10.014;2023-03-01T00:31:24;17.10;;;11.85;;
38581;SDS011;24349;53.720;10.014;2023-03-01T00:33:55;15.63;;;10.45;;
38581;SDS011;24349;53.720;10.014;2023-03-01T00:36:22;19.48;;;11.32;;
38581;SDS011;24349;53.720;10.014;2023-03-01T00:38:48;15.60;;;9.05;;
38581;SDS011;24349;53.720;10.014;2023-03-01T00:41:15;13.80;;;9.18;;
38581;SDS011;24349;53.720;10.014;2023-03-01T00:43:42;14.85;;;9.23;;
38581;SDS011;24349;53.720;10.014;2023-03-01T00:46:10;13.85;;;8.70;;
38581;SDS011;24349;53.720;10.014;2023-03-01T00:48:37;13.80;;;9.65;;
38581;SDS011;24349;53.720;10.014;2023-03-01T00:51:25;15.25;;;9.80;;
38581;SDS011;24349;53.720;10.014;2023-03-01T00:53:51;12.90;;;8.13;;
38581;SDS011;24349;53.720;10.014;2023-03-01T00:56:18;14.68;;;9.05;;
38581;SDS011;24349;53.720;10.014;2023-03-01T00:58:44;13.20;;;7.72;;
38581;SDS011;24349;53.720;10.014;2023-03-01T01:01:11;12.15;;;7.68;;
38581;SDS011;24349;53.720;10.014;2023-03-01T01:03:56;12.38;;;7.97;;
38581;SDS011;24349;53.720;10.014;2023-03-01T01:06:24;11.00;;;6.90;;
38581;SDS011;24349;53.720;10.014;2023-03-01T01:08:52;13.10;;;7.82;;
38581;SDS011;24349;53.720;10.014;2023-03-01T01:11:19;15.30;;;9.30;;
38581;SDS011;24349;53.720;10.014;2023-03-01T01:13:46;11.32;;;6.97;;
38581;SDS011;24349;53.720;10.014;2023-03-01T01:16:12;11.98;;;7.60;;
38581;SDS011;24349;53.720;10.014;2023-03-01T01:18:39;14.18;;;8.13;;
38581;SDS011;24349;53.720;10.014;2023-03-01T01:21:12;12.75;;;8.10;;
38581;SDS011;24349;53.720;10.014;2023-03-01T01:23:40;11.18;;;7.20;;
38581;SDS011;24349;53.720;10.014;2023-03-01T01:26:07;12.32;;;7.85;;
38581;SDS011;24349;53.720;10.014;2023-03-01T01:28:38;13.57;;;8.73;;
38581;SDS011;24349;53.720;10.014;2023-03-01T01:31:04;14.30;;;9.40;;
38581;SDS011;24349;53.720;10.014;2023-03-01T01:33:30;12.77;;;7.82;;
38581;SDS011;24349;53.720;10.014;2023-03-01T01:35:56;11.27;;;7.20;;
38581;SDS011;24349;53.720;10.014;2023-03-01T01:38:22;15.30;;;9.82;;
38581;SDS011;24349;53.720;10.014;2023-03-01T01:40:49;13.52;;;7.75;;
38581;SDS011;24349;53.720;10.014;2023-03-01T01:43:19;12.85;;;7.15;;
38581;SDS011;24349;53.720;10.014;2023-03-01T01:48:56;14.07;;;9.13;;
38581;SDS011;24349;53.720;10.014;2023-03-01T01:51:27;12.20;;;7.45;;
38581;SDS011;24349;53.720;10.014;2023-03-01T01:54:03;12.45;;;8.32;;
38581;SDS011;24349;53.720;10.014;2023-03-01T01:56:48;12.70;;;8.27;;
38581;SDS011;24349;53.720;10.014;2023-03-01T02:01:49;16.35;;;9.55;;
38581;SDS011;24349;53.720;10.014;2023-03-01T02:04:16;14.55;;;9.25;;
38581;SDS011;24349;53.720;10.014;2023-03-01T02:06:48;13.48;;;8.40;;
38581;SDS011;24349;53.720;10.014;2023-03-01T02:09:19;11.52;;;7.85;;
38581;SDS011;24349;53.720;10.014;2023-03-01T02:11:47;11.45;;;7.43;;
38581;SDS011;24349;53.720;10.014;2023-03-01T02:14:14;11.55;;;7.03;;
38581;SDS011;24349;53.720;10.014;2023-03-01T02:16:40;11.30;;;8.05;;
38581;SDS011;24349;53.720;10.014;2023-03-01T02:19:07;12.45;;;7.65;;
38581;SDS011;24349;53.720;10.014;2023-03-01T02:21:41;12.55;;;7.35;;
38581;SDS011;24349;53.720;10.014;2023-03-01T02:26:42;15.90;;;10.32;;
38581;SDS011;24349;53.720;10.014;2023-03-01T02:29:13;15.33;;;9.60;;
38581;SDS011;24349;53.720;10.014;2023-03-01T02:31:39;15.68;;;9.70;;
38581;SDS011;24349;53.720;10.014;2023-03-01T02:34:12;17.00;;;10.18;;
38581;SDS011;24349;53.720;10.014;2023-03-01T02:36:47;12.48;;;7.70;;
38581;SDS011;24349;53.720;10.014;2023-03-01T02:39:30;13.45;;;8.88;;
38581;SDS011;24349;53.720;10.014;2023-03-01T02:42:09;13.45;;;8.77;;
38581;SDS011;24349;53.720;10.014;2023-03-01T02:44:37;13.35;;;9.13;;
38581;SDS011;24349;53.720;10.014;2023-03-01T02:47:03;15.00;;;9.73;;
38581;SDS011;24349;53.720;10.014;2023-03-01T02:49:32;14.15;;;7.70;;
38581;SDS011;24349;53.720;10.014;2023-03-01T02:54:33;14.10;;;8.07;;
38581;SDS011;24349;53.720;10.014;2023-03-01T02:57:18;13.07;;;8.43;;
38581;SDS011;24349;53.720;10.014;2023-03-01T02:59:46;11.75;;;7.28;;
38581;SDS011;24349;53.720;10.014;2023-03-01T03:02:21;12.18;;;7.68;;
38581;SDS011;24349;53.720;10.014;2023-03-01T03:05:04;9.75;;;6.60;;
38581;SDS011;24349;53.720;10.014;2023-03-01T03:07:33;10.93;;;6.78;;
38581;SDS011;24349;53.720;10.014;2023-03-01T03:10:01;10.95;;;6.97;;
38581;SDS011;24349;53.720;10.014;2023-03-01T03:12:28;14.90;;;9.30;;
38581;SDS011;24349;53.720;10.014;2023-03-01T03:14:54;14.75;;;9.27;;
38581;SDS011;24349;53.720;10.014;2023-03-01T03:17:19;12.98;;;9.93;;
38581;SDS011;24349;53.720;10.014;2023-03-01T03:19:45;15.35;;;9.52;;
38581;SDS011;24349;53.720;10.014;2023-03-01T03:22:11;11.68;;;7.82;;
38581;SDS011;24349;53.720;10.014;2023-03-01T03:24:37;14.13;;;8.07;;
38581;SDS011;24349;53.720;10.014;2023-03-01T03:27:04;13.60;;;8.77;;
38581;SDS011;24349;53.720;10.014;2023-03-01T03:29:30;13.27;;;8.98;;
38581;SDS011;24349;53.720;10.014;2023-03-01T03:31:56;14.88;;;9.45;;
38581;SDS011;24349;53.720;10.014;2023-03-01T03:34:21;17.25;;;10.30;;
38581;SDS011;24349;53.720;10.014;2023-03-01T03:36:47;10.95;;;7.72;;
38581;SDS011;24349;53.720;10.014;2023-03-01T03:39:13;16.02;;;10.35;;
38581;SDS011;24349;53.720;10.014;2023-03-01T03:41:38;11.68;;;7.55;;
38581;SDS011;24349;53.720;10.014;2023-03-01T03:44:04;13.48;;;8.88;;
38581;SDS011;24349;53.720;10.014;2023-03-01T03:46:29;13.07;;;7.93;;
38581;SDS011;24349;53.720;10.014;2023-03-01T03:48:55;11.13;;;7.75;;
38581;SDS011;24349;53.720;10.014;2023-03-01T03:51:20;12.82;;;8.57;;
38581;SDS011;24349;53.720;10.014;2023-03-01T03:53:47;15.43;;;9.30;;
38581;SDS011;24349;53.720;10.014;2023-03-01T03:56:13;14.70;;;10.25;;
38581;SDS011;24349;53.720;10.014;2023-03-01T03:58:39;14.68;;;9.23;;
38581;SDS011;24349;53.720;10.014;2023-03-01T04:01:05;16.50;;;10.70;;
38581;SDS011;24349;53.720;10.014;2023-03-01T04:03:31;13.05;;;8.27;;
38581;SDS011;24349;53.720;10.014;2023-03-01T04:05:58;16.52;;;8.63;;
38581;SDS011;24349;53.720;10.014;2023-03-01T04:08:25;14.95;;;10.02;;
38581;SDS011;24349;53.720;10.014;2023-03-01T04:10:53;14.43;;;8.52;;
38581;SDS011;24349;53.720;10.014;2023-03-01T04:13:23;13.50;;;8.30;;
38581;SDS011;24349;53.720;10.014;2023-03-01T04:15:50;15.43;;;8.95;;
38581;SDS011;24349;53.720;10.014;2023-03-01T04:18:17;12.73;;;9.10;;
38581;SDS011;24349;53.720;10.014;2023-03-01T04:20:44;14.40;;;9.35;;
38581;SDS011;24349;53.720;10.014;2023-03-01T04:23:12;12.93;;;7.88;;
38581;SDS011;24349;53.720;10.014;2023-03-01T04:28:19;11.30;;;7.22;;
38581;SDS011;24349;53.720;10.014;2023-03-01T04:30:49;14.23;;;8.73;;
38581;SDS011;24349;53.720;10.014;2023-03-01T04:33:16;13.05;;;8.90;;
38581;SDS011;24349;53.720;10.014;2023-03-01T04:35:42;11.73;;;7.30;;
38581;SDS011;24349;53.720;10.014;2023-03-01T04:38:08;11.43;;;7.35;;
38581;SDS011;24349;53.720;10.014;2023-03-01T04:40:33;12.05;;;8.05;;
38581;SDS011;24349;53.720;10.014;2023-03-01T04:43:00;13.23;;;8.90;;
38581;SDS011;24349;53.720;10.014;2023-03-01T04:45:26;12.27;;;8.02;;
38581;SDS011;24349;53.720;10.014;2023-03-01T04:47:52;16.75;;;10.18;;
38581;SDS011;24349;53.720;10.014;2023-03-01T04:50:18;14.95;;;9.73;;
38581;SDS011;24349;53.720;10.014;2023-03-01T04:52:45;14.52;;;9.35;;
38581;SDS011;24349;53.720;10.014;2023-03-01T04:55:11;14.65;;;9.02;;
38581;SDS011;24349;53.720;10.014;2023-03-01T04:57:37;12.57;;;7.85;;
38581;SDS011;24349;53.720;10.014;2023-03-01T05:00:05;18.08;;;10.85;;
38581;SDS011;24349;53.720;10.014;2023-03-01T05:02:49;14.48;;;10.13;;
38581;SDS011;24349;53.720;10.014;2023-03-01T05:05:24;13.90;;;8.20;;
38581;SDS011;24349;53.720;10.014;2023-03-01T05:08:02;16.70;;;9.27;;
38581;SDS011;24349;53.720;10.014;2023-03-01T05:10:30;14.35;;;9.30;;
38581;SDS011;24349;53.720;10.014;2023-03-01T05:12:57;13.95;;;9.02;;
38581;SDS011;24349;53.720;10.014;2023-03-01T05:15:24;12.35;;;8.20;;
38581;SDS011;24349;53.720;10.014;2023-03-01T05:17:51;14.85;;;8.52;;
38581;SDS011;24349;53.720;10.014;2023-03-01T05:20:19;12.93;;;7.80;;
38581;SDS011;24349;53.720;10.014;2023-03-01T05:22:47;12.70;;;7.40;;
38581;SDS011;24349;53.720;10.014;2023-03-01T05:25:13;12.98;;;8.48;;
38581;SDS011;24349;53.720;10.014;2023-03-01T05:27:39;11.40;;;7.72;;
38581;SDS011;24349;53.720;10.014;2023-03-01T05:30:05;12.23;;;7.40;;
38581;SDS011;24349;53.720;10.014;2023-03-01T05:32:48;14.90;;;9.68;;
38581;SDS011;24349;53.720;10.014;2023-03-01T05:35:20;10.75;;;7.22;;
38581;SDS011;24349;53.720;10.014;2023-03-01T05:37:46;12.55;;;7.07;;
38581;SDS011;24349;53.720;10.014;2023-03-01T05:40:17;15.30;;;9.85;;
38581;SDS011;24349;53.720;10.014;2023-03-01T05:42:45;13.05;;;8.73;;
38581;SDS011;24349;53.720;10.014;2023-03-01T05:45:12;12.80;;;7.43;;
38581;SDS011;24349;53.720;10.014;2023-03-01T05:47:40;14.55;;;9.63;;
38581;SDS011;24349;53.720;10.014;2023-03-01T05:50:19;14.85;;;10.32;;
38581;SDS011;24349;53.720;10.014;2023-03-01T05:52:50;12.55;;;7.32;;
38581;SDS011;24349;53.720;10.014;2023-03-01T05:55:17;13.18;;;7.88;;
38581;SDS011;24349;53.720;10.014;2023-03-01T05:57:45;15.38;;;9.40;;
38581;SDS011;24349;53.720;10.014;2023-03-01T06:00:12;13.45;;;9.75;;
38581;SDS011;24349;53.720;10.014;2023-03-01T06:02:39;17.38;;;10.55;;
38581;SDS011;24349;53.720;10.014;2023-03-01T06:05:05;11.73;;;7.65;;
38581;SDS011;24349;53.720;10.014;2023-03-01T06:07:32;13.32;;;9.00;;
38581;SDS011;24349;53.720;10.014;2023-03-01T06:09:58;13.95;;;8.88;;
38581;SDS011;24349;53.720;10.014;2023-03-01T06:12:24;15.00;;;10.35;;
38581;SDS011;24349;53.720;10.014;2023-03-01T06:14:49;18.13;;;11.82;;
38581;SDS011;24349;53.720;10.014;2023-03-01T06:17:15;17.20;;;10.60;;
38581;SDS011;24349;53.720;10.014;2023-03-01T06:19:41;17.48;;;10.50;;
38581;SDS011;24349;53.720;10.014;2023-03-01T06:22:06;18.27;;;12.18;;
38581;SDS011;24349;53.720;10.014;2023-03-01T06:24:33;15.45;;;10.77;;
38581;SDS011;24349;53.720;10.014;2023-03-01T06:26:58;16.50;;;11.27;;
38581;SDS011;24349;53.720;10.014;2023-03-01T06:29:24;14.15;;;9.25;;
38581;SDS011;24349;53.720;10.014;2023-03-01T06:31:50;15.57;;;9.73;;
38581;SDS011;24349;53.720;10.014;2023-03-01T06:34:15;17.63;;;11.75;;
38581;SDS011;24349;53.720;10.014;2023-03-01T06:36:41;18.48;;;12.63;;
38581;SDS011;24349;53.720;10.014;2023-03-01T06:39:07;21.92;;;13.38;;
38581;SDS011;24349;53.720;10.014;2023-03-01T06:41:32;17.52;;;10.20;;
38581;SDS011;24349;53.720;10.014;2023-03-01T06:43:58;20.08;;;12.55;;
38581;SDS011;24349;53.720;10.014;2023-03-01T06:46:24;19.80;;;12.35;;
38581;SDS011;24349;53.720;10.014;2023-03-01T06:48:50;17.50;;;10.93;;
38581;SDS011;24349;53.720;10.014;2023-03-01T06:51:16;20.13;;;13.23;;
38581;SDS011;24349;53.720;10.014;2023-03-01T06:53:41;18.27;;;12.80;;
38581;SDS011;24349;53.720;10.014;2023-03-01T06:56:07;18.58;;;11.95;;
38581;SDS011;24349;53.720;10.014;2023-03-01T06:58:33;17.23;;;10.75;;
38581;SDS011;24349;53.720;10.014;2023-03-01T07:00:58;15.55;;;10.77;;
38581;SDS011;24349;53.720;10.014;2023-03-01T07:03:24;16.83;;;11.77;;
38581;SDS011;24349;53.720;10.014;2023-03-01T07:05:50;18.45;;;11.88;;
38581;SDS011;24349;53.720;10.014;2023-03-01T07:08:19;18.25;;;13.05;;
38581;SDS011;24349;53.720;10.014;2023-03-01T07:10:44;16.35;;;10.68;;
38581;SDS011;24349;53.720;10.014;2023-03-01T07:13:10;16.33;;;10.65;;
38581;SDS011;24349;53.720;10.014;2023-03-01T07:15:36;15.63;;;11.30;;
38581;SDS011;24349;53.720;10.014;2023-03-01T07:18:01;22.20;;;13.73;;
38581;SDS011;24349;53.720;10.014;2023-03-01T07:20:27;22.40;;;15.52;;
38581;SDS011;24349;53.720;10.014;2023-03-01T07:22:55;21.30;;;14.48;;
38581;SDS011;24349;53.720;10.014;2023-03-01T07:25:23;22.95;;;16.92;;
38581;SDS011;24349;53.720;10.014;2023-03-01T07:27:50;25.60;;;17.45;;
38581;SDS011;24349;53.720;10.014;2023-03-01T07:30:16;23.92;;;16.85;;
38581;SDS011;24349;53.720;10.014;2023-03-01T07:32:42;21.92;;;14.93;;
38581;SDS011;24349;53.720;10.014;2023-03-01T07:35:07;23.45;;;16.05;;
38581;SDS011;24349;53.720;10.014;2023-03-01T07:37:33;23.98;;;16.23;;
38581;SDS011;24349;53.720;10.014;2023-03-01T07:39:59;20.63;;;15.00;;
38581;SDS011;24349;53.720;10.014;2023-03-01T07:42:24;22.15;;;15.07;;
38581;SDS011;24349;53.720;10.014;2023-03-01T07:44:50;20.15;;;14.60;;
38581;SDS011;24349;53.720;10.014;2023-03-01T07:47:16;23.80;;;15.05;;
38581;SDS011;24349;53.720;10.014;2023-03-01T07:49:41;21.33;;;13.48;;
38581;SDS011;24349;53.720;10.014;2023-03-01T07:52:09;23.90;;;15.40;;
38581;SDS011;24349;53.720;10.014;2023-03-01T07:54:38;22.00;;;15.32;;
38581;SDS011;24349;53.720;10.014;2023-03-01T07:57:03;24.48;;;15.18;;
38581;SDS011;24349;53.720;10.014;2023-03-01T07:59:29;24.42;;;14.43;;
38581;SDS011;24349;53.720;10.014;2023-03-01T08:01:55;18.90;;;13.98;;
38581;SDS011;24349;53.720;10.014;2023-03-01T08:04:21;19.25;;;12.48;;
38581;SDS011;24349;53.720;10.014;2023-03-01T08:06:49;16.48;;;11.80;;
38581;SDS011;24349;53.720;10.014;2023-03-01T08:09:15;16.88;;;12.25;;
38581;SDS011;24349;53.720;10.014;2023-03-01T08:11:41;15.27;;;11.52;;
38581;SDS011;24349;53.720;10.014;2023-03-01T08:14:07;15.48;;;11.15;;
38581;SDS011;24349;53.720;10.014;2023-03-01T08:16:32;15.27;;;10.60;;
38581;SDS011;24349;53.720;10.014;2023-03-01T08:19:03;16.48;;;11.75;;
38581;SDS011;24349;53.720;10.014;2023-03-01T08:21:30;15.35;;;11.77;;
38581;SDS011;24349;53.720;10.014;2023-03-01T08:23:56;16.13;;;11.18;;
38581;SDS011;24349;53.720;10.014;2023-03-01T08:26:21;17.25;;;12.43;;
38581;SDS011;24349;53.720;10.014;2023-03-01T08:28:47;18.80;;;12.32;;
38581;SDS011;24349;53.720;10.014;2023-03-01T08:33:44;15.00;;;11.52;;
38581;SDS011;24349;53.720;10.014;2023-03-01T08:36:15;17.25;;;12.23;;
38581;SDS011;24349;53.720;10.014;2023-03-01T08:38:42;15.40;;;11.93;;
38581;SDS011;24349;53.720;10.014;2023-03-01T08:41:07;15.40;;;11.85;;
38581;SDS011;24349;53.720;10.014;2023-03-01T08:43:33;16.95;;;12.10;;
38581;SDS011;24349;53.720;10.014;2023-03-01T08:45:59;16.70;;;11.75;;
38581;SDS011;24349;53.720;10.014;2023-03-01T08:48:24;15.07;;;11.73;;
38581;SDS011;24349;53.720;10.014;2023-03-01T08:50:52;17.83;;;14.18;;
38581;SDS011;24349;53.720;10.014;2023-03-01T08:53:17;14.73;;;12.02;;
38581;SDS011;24349;53.720;10.014;2023-03-01T08:55:43;13.52;;;11.13;;
38581;SDS011;24349;53.720;10.014;2023-03-01T08:58:09;15.88;;;11.70;;
38581;SDS011;24349;53.720;10.014;2023-03-01T09:00:34;15.88;;;11.77;;
38581;SDS011;24349;53.720;10.014;2023-03-01T09:03:00;13.10;;;10.50;;
38581;SDS011;24349;53.720;10.014;2023-03-01T09:05:26;14.40;;;10.85;;
38581;SDS011;24349;53.720;10.014;2023-03-01T09:07:51;13.70;;;10.63;;
38581;SDS011;24349;53.720;10.014;2023-03-01T09:10:17;15.02;;;11.48;;
38581;SDS011;24349;53.720;10.014;2023-03-01T09:12:43;12.27;;;10.35;;
38581;SDS011;24349;53.720;10.014;2023-03-01T09:15:09;15.63;;;11.23;;
38581;SDS011;24349;53.720;10.014;2023-03-01T09:17:35;14.95;;;11.60;;
38581;SDS011;24349;53.720;10.014;2023-03-01T09:20:00;14.75;;;10.10;;
38581;SDS011;24349;53.720;10.014;2023-03-01T09:22:26;15.25;;;11.93;;
38581;SDS011;24349;53.720;10.014;2023-03-01T09:24:51;15.50;;;11.95;;
38581;SDS011;24349;53.720;10.014;2023-03-01T09:27:17;17.05;;;12.43;;
38581;SDS011;24349;53.720;10.014;2023-03-01T09:29:44;15.90;;;11.82;;
38581;SDS011;24349;53.720;10.014;2023-03-01T09:32:10;14.82;;;10.38;;
38581;SDS011;24349;53.720;10.014;2023-03-01T09:34:35;15.85;;;11.00;;
38581;SDS011;24349;53.720;10.014;2023-03-01T09:37:24;15.38;;;11.07;;
38581;SDS011;24349;53.720;10.014;2023-03-01T09:39:50;17.52;;;10.82;;
38581;SDS011;24349;53.720;10.014;2023-03-01T09:42:15;14.68;;;11.30;;
38581;SDS011;24349;53.720;10.014;2023-03-01T09:47:20;14.98;;;11.45;;
38581;SDS011;24349;53.720;10.014;2023-03-01T09:50:13;14.27;;;10.82;;
38581;SDS011;24349;53.720;10.014;2023-03-01T09:52:46;14.57;;;11.57;;
38581;SDS011;24349;53.720;10.014;2023-03-01T10:01:23;13.48;;;10.40;;
38581;SDS011;24349;53.720;10.014;2023-03-01T10:06:44;13.15;;;10.30;;
38581;SDS011;24349;53.720;10.014;2023-03-01T10:09:20;13.80;;;11.13;;
38581;SDS011;24349;53.720;10.014;2023-03-01T10:11:50;13.50;;;10.35;;
38581;SDS011;24349;53.720;10.014;2023-03-01T10:14:24;13.25;;;10.02;;
38581;SDS011;24349;53.720;10.014;2023-03-01T10:17:02;14.25;;;10.50;;
38581;SDS011;24349;53.720;10.014;2023-03-01T10:22:20;16.42;;;10.38;;
38581;SDS011;24349;53.720;10.014;2023-03-01T10:24:52;13.18;;;10.05;;
38581;SDS011;24349;53.720;10.014;2023-03-01T10:27:23;12.82;;;10.48;;
38581;SDS011;24349;53.720;10.014;2023-03-01T10:29:55;14.23;;;10.07;;
38581;SDS011;24349;53.720;10.014;2023-03-01T10:32:31;13.50;;;10.68;;
38581;SDS011;24349;53.720;10.014;2023-03-01T10:34:57;12.77;;;10.02;;
38581;SDS011;24349;53.720;10.014;2023-03-01T10:37:23;12.68;;;9.80;;
38581;SDS011;24349;53.720;10.014;2023-03-01T10:40:05;14.50;;;9.90;;
38581;SDS011;24349;53.720;10.014;2023-03-01T10:42:39;13.65;;;10.43;;
38581;SDS011;24349;53.720;10.014;2023-03-01T10:47:44;12.27;;;9.40;;
38581;SDS011;24349;53.720;10.014;2023-03-01T10:50:20;13.38;;;9.73;;
38581;SDS011;24349;53.720;10.014;2023-03-01T10:53:00;12.63;;;9.90;;
38581;SDS011;24349;53.720;10.014;2023-03-01T10:55:30;12.00;;;9.07;;
38581;SDS011;24349;53.720;10.014;2023-03-01T10:58:21;12.38;;;9.88;;
38581;SDS011;24349;53.720;10.014;2023-03-01T11:03:19;11.98;;;8.98;;
38581;SDS011;24349;53.720;10.014;2023-03-01T11:08:31;11.50;;;9.20;;
38581;SDS011;24349;53.720;10.014;2023-03-01T11:11:21;11.13;;;8.25;;
38581;SDS011;24349;53.720;10.014;2023-03-01T11:16:40;13.07;;;9.10;;
38581;SDS011;24349;53.720;10.014;2023-03-01T11:21:35;12.50;;;9.18;;
38581;SDS011;24349;53.720;10.014;2023-03-01T11:24:09;11.07;;;7.88;;
38581;SDS011;24349;53.720;10.014;2023-03-01T11:26:39;11.55;;;8.43;;
38581;SDS011;24349;53.720;10.014;2023-03-01T11:29:18;10.27;;;8.15;;
38581;SDS011;24349;53.720;10.014;2023-03-01T11:34:20;8.80;;;7.05;;
38581;SDS011;24349;53.720;10.014;2023-03-01T11:37:21;11.02;;;7.60;;
38581;SDS011;24349;53.720;10.014;2023-03-01T11:39:55;9.82;;;7.10;;
38581;SDS011;24349;53.720;10.014;2023-03-01T11:42:34;10.77;;;7.20;;
38581;SDS011;24349;53.720;10.014;2023-03-01T11:45:13;8.77;;;6.80;;
38581;SDS011;24349;53.720;10.014;2023-03-01T11:47:42;9.57;;;6.70;;
38581;SDS011;24349;53.720;10.014;2023-03-01T11:50:25;10.02;;;7.00;;
38581;SDS011;24349;53.720;10.014;2023-03-01T11:59:16;10.57;;;8.20;;
38581;SDS011;24349;53.720;10.014;2023-03-01T12:04:48;8.07;;;5.72;;
38581;SDS011;24349;53.720;10.014;2023-03-01T12:08:28;8.50;;;5.72;;
38581;SDS011;24349;53.720;10.014;2023-03-01T12:10:25;9.88;;;5.22;;
38581;SDS011;24349;53.720;10.014;2023-03-01T12:16:26;8.10;;;6.03;;
38581;SDS011;24349;53.720;10.014;2023-03-01T12:21:30;8.68;;;6.93;;
38581;SDS011;24349;53.720;10.014;2023-03-01T12:24:10;9.35;;;6.47;;
38581;SDS011;24349;53.720;10.014;2023-03-01T12:27:02;9.00;;;7.13;;
38581;SDS011;24349;53.720;10.014;2023-03-01T12:32:50;8.93;;;6.05;;
38581;SDS011;24349;53.720;10.014;2023-03-01T12:44:15;8.30;;;5.80;;
38581;SDS011;24349;53.720;10.014;2023-03-01T12:49:40;6.47;;;4.60;;
38581;SDS011;24349;53.720;10.014;2023-03-01T12:54:41;7.15;;;4.70;;
38581;SDS011;24349;53.720;10.014;2023-03-01T13:08:52;8.00;;;4.03;;
38581;SDS011;24349;53.720;10.014;2023-03-01T13:11:29;7.13;;;4.45;;
38581;SDS011;24349;53.720;10.014;2023-03-01T13:14:33;7.63;;;4.15;;
38581;SDS011;24349;53.720;10.014;2023-03-01T13:16:47;7.50;;;4.63;;
38581;SDS011;24349;53.720;10.014;2023-03-01T13:19:18;7.97;;;5.25;;
38581;SDS011;24349;53.720;10.014;2023-03-01T13:21:46;7.75;;;4.53;;
38581;SDS011;24349;53.720;10.014;2023-03-01T13:29:46;7.85;;;4.72;;
38581;SDS011;24349;53.720;10.014;2023-03-01T13:32:26;8.25;;;5.25;;
38581;SDS011;24349;53.720;10.014;2023-03-01T13:37:43;8.30;;;6.00;;
38581;SDS011;24349;53.720;10.014;2023-03-01T13:42:44;8.02;;;5.63;;
38581;SDS011;24349;53.720;10.014;2023-03-01T13:45:24;8.13;;;5.63;;
38581;SDS011;24349;53.720;10.014;2023-03-01T13:48:16;7.88;;;5.30;;
38581;SDS011;24349;53.720;10.014;2023-03-01T13:50:50;10.82;;;5.78;;
38581;SDS011;24349;53.720;10.014;2023-03-01T13:53:23;7.78;;;5.53;;
38581;SDS011;24349;53.720;10.014;2023-03-01T13:55:52;9.45;;;5.55;;
38581;SDS011;24349;53.720;10.014;2023-03-01T14:03:27;8.55;;;5.63;;
38581;SDS011;24349;53.720;10.014;2023-03-01T14:05:59;8.38;;;5.80;;
38581;SDS011;24349;53.720;10.014;2023-03-01T14:08:34;8.57;;;6.25;;
38581;SDS011;24349;53.720;10.014;2023-03-01T14:16:38;9.57;;;6.45;;
38581;SDS011;24349;53.720;10.014;2023-03-01T14:19:15;8.88;;;6.65;;
38581;SDS011;24349;53.720;10.014;2023-03-01T14:21:44;8.75;;;6.45;;
38581;SDS011;24349;53.720;10.014;2023-03-01T14:24:22;9.48;;;6.15;;
38581;SDS011;24349;53.720;10.014;2023-03-01T14:26:51;8.15;;;5.70;;
38581;SDS011;24349;53.720;10.014;2023-03-01T14:29:27;8.93;;;5.35;;
38581;SDS011;24349;53.720;10.014;2023-03-01T14:32:11;9.65;;;5.45;;
38581;SDS011;24349;53.720;10.014;2023-03-01T14:34:49;7.75;;;5.10;;
38581;SDS011;24349;53.720;10.014;2023-03-01T14:39:51;8.43;;;5.75;;
38581;SDS011;24349;53.720;10.014;2023-03-01T14:42:18;7.18;;;4.43;;
38581;SDS011;24349;53.720;10.014;2023-03-01T14:44:46;8.02;;;4.55;;
38581;SDS011;24349;53.720;10.014;2023-03-01T14:47:15;7.45;;;4.55;;
38581;SDS011;24349;53.720;10.014;2023-03-01T14:49:53;7.90;;;4.90;;
38581;SDS011;24349;53.720;10.014;2023-03-01T14:52:25;7.38;;;4.78;;
38581;SDS011;24349;53.720;10.014;2023-03-01T14:58:13;8.38;;;5.22;;
38581;SDS011;24349;53.720;10.014;2023-03-01T15:00:46;6.82;;;3.95;;
38581;SDS011;24349;53.720;10.014;2023-03-01T15:03:25;7.18;;;4.90;;
38581;SDS011;24349;53.720;10.014;2023-03-01T15:05:56;9.05;;;5.57;;
38581;SDS011;24349;53.720;10.014;2023-03-01T15:08:23;10.38;;;6.38;;
38581;SDS011;24349;53.720;10.014;2023-03-01T15:10:58;9.38;;;6.35;;
38581;SDS011;24349;53.720;10.014;2023-03-01T15:13:41;8.80;;;5.95;;
38581;SDS011;24349;53.720;10.014;2023-03-01T15:16:11;8.02;;;5.30;;
38581;SDS011;24349;53.720;10.014;2023-03-01T15:18:45;9.50;;;6.40;;
38581;SDS011;24349;53.720;10.014;2023-03-01T15:21:23;9.73;;;6.22;;
38581;SDS011;24349;53.720;10.014;2023-03-01T15:23:54;10.40;;;6.43;;
38581;SDS011;24349;53.720;10.014;2023-03-01T15:26:27;9.60;;;6.43;;
38581;SDS011;24349;53.720;10.014;2023-03-01T15:28:59;7.70;;;5.53;;
38581;SDS011;24349;53.720;10.014;2023-03-01T15:31:27;9.55;;;6.32;;
38581;SDS011;24349;53.720;10.014;2023-03-01T15:34:09;9.27;;;6.72;;
38581;SDS011;24349;53.720;10.014;2023-03-01T15:36:48;9.27;;;6.25;;
38581;SDS011;24349;53.720;10.014;2023-03-01T15:39:33;9.13;;;6.10;;
38581;SDS011;24349;53.720;10.014;2023-03-01T15:42:03;12.20;;;6.90;;
38581;SDS011;24349;53.720;10.014;2023-03-01T15:45:06;9.90;;;6.55;;
38581;SDS011;24349;53.720;10.014;2023-03-01T15:47:58;9.45;;;6.50;;
38581;SDS011;24349;53.720;10.014;2023-03-01T15:50:31;9.13;;;6.25;;
38581;SDS011;24349;53.720;10.014;2023-03-01T15:52:59;10.65;;;7.25;;
38581;SDS011;24349;53.720;10.014;2023-03-01T15:55:27;10.15;;;6.80;;
38581;SDS011;24349;53.720;10.014;2023-03-01T15:58:13;10.73;;;7.07;;
38581;SDS011;24349;53.720;10.014;2023-03-01T16:00:44;10.68;;;6.85;;
38581;SDS011;24349;53.720;10.014;2023-03-01T16:03:10;10.25;;;6.70;;
38581;SDS011;24349;53.720;10.014;2023-03-01T16:05:36;11.02;;;7.53;;
38581;SDS011;24349;53.720;10.014;2023-03-01T16:08:03;11.20;;;7.35;;
38581;SDS011;24349;53.720;10.014;2023-03-01T16:10:31;10.43;;;7.57;;
38581;SDS011;24349;53.720;10.014;2023-03-01T16:12:57;11.02;;;7.70;;
38581;SDS011;24349;53.720;10.014;2023-03-01T16:15:24;9.68;;;7.15;;
38581;SDS011;24349;53.720;10.014;2023-03-01T16:17:54;11.20;;;7.22;;
38581;SDS011;24349;53.720;10.014;2023-03-01T16:20:23;11.00;;;7.80;;
38581;SDS011;24349;53.720;10.014;2023-03-01T16:22:49;10.82;;;8.07;;
38581;SDS011;24349;53.720;10.014;2023-03-01T16:25:16;11.68;;;8.07;;
38581;SDS011;24349;53.720;10.014;2023-03-01T16:27:44;11.27;;;8.02;;
38581;SDS011;24349;53.720;10.014;2023-03-01T16:30:11;10.88;;;7.75;;
38581;SDS011;24349;53.720;10.014;2023-03-01T16:32:39;10.35;;;7.35;;